Crew | Aerofun Virtual



 METAR AND TAF INFORMATION
METAR FOR LEVX
ADDS - METARS form results

(1940 UTC 27 February 2020)
Data provider http://aviationweather.gov/metar/data/
 
METAR text: LEVX 271930Z 24004KT 9999 SCT014 12/10 Q1025 NOSIG
Conditions at: LEVX (VIGO/PEINADOR , ES) observed 1930 UTC 27 February 2020
Temperature: 12.0°C (54°F)
Dewpoint: 10.0°C (50°F) [RH = 88%]
Pressure (altimeter): 30.27 inches Hg (1025.0 mb)
Winds: from the WSW (240 degrees) at 5 MPH (4 knots; 2.1 m/s)
Visibility: 6 or more miles (10+ km)
Ceiling: at least 12,000 feet AGL
Clouds: scattered clouds at 1400 feet AGL
Weather: no significant weather observed at this time

METAR text: LEVX 271900Z 25006KT 210V290 9999 FEW017 12/10 Q1025 NOSIG
Conditions at: LEVX (VIGO/PEINADOR , ES) observed 1900 UTC 27 February 2020
Temperature: 12.0°C (54°F)
Dewpoint: 10.0°C (50°F) [RH = 88%]
Pressure (altimeter): 30.27 inches Hg (1025.0 mb)
Winds: from the WSW (250 degrees) at 7 MPH (6 knots; 3.1 m/s)
Visibility: 6 or more miles (10+ km)
Ceiling: at least 12,000 feet AGL
Clouds: few clouds at 1700 feet AGL
Weather: no significant weather observed at this time

Forecast for: LEVX (VIGO/PEINADOR , ES)
Text: TAF LEVX 271700Z 2718/2818 20009KT 7000 SCT015 BKN020 TX15/2814Z TN08/2806Z
Forecast period: 1800 UTC 27 February 2020 to 1800 UTC 28 February 2020
Forecast type: FROM: standard forecast or significant change
Winds: from the SSW (200 degrees) at 10 MPH (9 knots; 4.6 m/s)
Visibility: 4 miles (7 km)
Ceiling: 2000 feet AGL
Clouds: scattered clouds at 1500 feet AGL
broken clouds at 2000 feet AGL
Weather: no significant weather forecast for this period
Text: PROB30
Forecast period: 1800 to 2100 UTC 27 February 2020
Forecast type: TEMPORARY: The following changes expected for less than half the time period
Visibility: missing
Ceiling: 1000 feet AGL
Clouds: broken clouds at 1000 feet AGL
Weather: no significant weather forecast for this period
Text: TEMPO 2718/2721 BKN010
Forecast period: 2100 UTC 27 February 2020 to 0900 UTC 28 February 2020
Forecast type: TEMPORARY: The following changes expected for less than half the time period
Visibility: 0.22 miles (0.35 km)
Ceiling: indefinite ceiling with vertical visibility of 100 feet AGL
Clouds: obscured sky
Weather: FG  (fog)

 AIRPORT MAP

 RUNWAY INFORMATION
Runway 02 Runway length 7874 ft Runway width 148 ft
Runway elevation 855 ft Runway displaced threshold 0 ft Runway heading 11
Runway 20 Runway length 7874 ft Runway width 148 ft
Runway elevation 829 ft Runway displaced threshold 0 ft Runway heading 191

 AIRPORT FREQUENCIES
Type APP Name SANTIAGO A Frequency 120.2 MHZ
Type GND Name GND Frequency 121.7 MHZ
Type TWR Name TWR Frequency 118.45 MHZ

 AIRPORT NEAR NAVIGATION AIDS
Type VOR-DME Name Vigo Frequency 113600 KHZ
Type NDB Name Vigo Frequency 345 KHZ
Type NDB Name Vigo Frequency 433 KHZ